Time;durP1;ratioP1;P1;durP2;ratioP2;P2;SDS_P1;SDS_P2;PMS_P1;PMS_P2;Temp;Humidity;BMP_temperature;BMP_pressure;BME280_temperature;BME280_humidity;BME280_pressure;Samples;Min_cycle;Max_cycle;Signal;HPM_P1;HPM_P2
2022/12/16 00:00:21;;;;;;;17.87;9.57;;;;;;;6.89;55.69;101075.97;5115442;28;20023;-68
2022/12/16 00:02:46;;;;;;;18.00;9.00;;;;;;;7.40;54.13;101068.56;5121880;27;20047;-69
2022/12/16 00:05:12;;;;;;;20.00;9.30;;;;;;;7.89;53.52;101079.25;5130078;27;20492;-69
2022/12/16 00:07:37;;;;;;;19.03;9.90;;;;;;;8.43;50.91;101081.22;5113362;27;20032;-69
2022/12/16 00:10:03;;;;;;;19.23;9.60;;;;;;;7.50;53.49;101088.59;5133595;27;20112;-69
2022/12/16 00:12:28;;;;;;;20.43;10.23;;;;;;;8.30;51.70;101094.19;5134841;27;20651;-69
2022/12/16 00:14:54;;;;;;;21.83;10.10;;;;;;;9.07;49.08;101090.03;5115572;27;20510;-69
2022/12/16 00:17:20;;;;;;;17.87;11.03;;;;;;;8.87;48.99;101090.88;5116127;27;20042;-69
2022/12/16 00:19:45;;;;;;;18.33;8.33;;;;;;;8.73;49.52;101095.22;5116311;27;20027;-69
2022/12/16 00:22:10;;;;;;;20.87;8.70;;;;;;;8.95;49.21;101091.75;5134804;27;20131;-69
2022/12/16 00:24:36;;;;;;;19.03;8.27;;;;;;;8.66;49.83;101089.97;5133350;27;20027;-69
2022/12/16 00:27:01;;;;;;;15.27;7.83;;;;;;;8.55;49.86;101096.06;5135389;27;20152;-69
2022/12/16 00:29:27;;;;;;;13.73;7.47;;;;;;;8.86;49.67;101094.38;5132552;27;20015;-69
2022/12/16 00:31:52;;;;;;;13.03;6.70;;;;;;;9.02;48.63;101091.78;5116217;27;20023;-69
2022/12/16 00:34:18;;;;;;;17.77;7.37;;;;;;;8.53;49.77;101093.44;5116456;27;20027;-69
2022/12/16 00:36:43;;;;;;;11.97;7.00;;;;;;;8.49;49.83;101097.75;5114721;27;20019;-69
2022/12/16 00:39:09;;;;;;;13.20;6.87;;;;;;;8.51;50.84;101097.75;5133684;27;20029;-69
2022/12/16 00:41:35;;;;;;;11.73;6.43;;;;;;;9.07;49.19;101110.91;5113935;27;20474;-69
2022/12/16 00:44:00;;;;;;;14.27;7.20;;;;;;;9.26;48.67;101107.44;5134166;27;20035;-68
2022/12/16 00:46:26;;;;;;;16.57;6.97;;;;;;;9.36;48.53;101112.66;5115015;27;20024;-68
2022/12/16 00:48:51;;;;;;;14.87;6.20;;;;;;;8.84;50.06;101119.56;5116500;27;20070;-69
2022/12/16 00:51:16;;;;;;;17.67;6.73;;;;;;;9.24;49.19;101116.97;5113674;27;20026;-69
2022/12/16 00:53:42;;;;;;;13.13;5.97;;;;;;;8.69;50.30;101122.13;5128641;27;20235;-69
2022/12/16 00:56:13;;;;;;;9.43;4.90;;;;;;;8.69;51.14;101120.38;5096042;28;20557;-69
2022/12/16 00:58:39;;;;;;;11.03;5.30;;;;;;;9.02;49.76;101117.84;5095439;27;20505;-69
2022/12/16 01:01:05;;;;;;;9.90;4.70;;;;;;;8.78;50.09;101124.78;5111659;27;20055;-68
2022/12/16 01:03:31;;;;;;;7.33;4.23;;;;;;;8.77;49.88;101115.22;5115434;27;20050;-69
2022/12/16 01:05:57;;;;;;;8.87;4.30;;;;;;;8.72;50.49;101124.75;5134120;27;20043;-69
2022/12/16 01:08:23;;;;;;;10.17;4.53;;;;;;;8.98;49.18;101117.84;5116240;27;20375;-69
2022/12/16 01:10:50;;;;;;;6.80;4.33;;;;;;;8.79;50.05;101121.28;5114672;27;20031;-69
2022/12/16 01:13:16;;;;;;;7.83;3.77;;;;;;;8.81;49.29;101120.41;5132762;27;20138;-69
2022/12/16 01:15:42;;;;;;;9.77;3.10;;;;;;;8.51;50.55;101125.56;5132596;27;20550;-69
2022/12/16 01:18:07;;;;;;;13.40;3.23;;;;;;;8.73;50.22;101129.94;5115262;27;20118;-69
2022/12/16 01:20:33;;;;;;;9.47;3.20;;;;;;;8.87;49.48;101132.59;5133405;27;20034;-69
2022/12/16 01:22:58;;;;;;;11.40;3.40;;;;;;;8.80;48.93;101141.28;5131756;27;20031;-69
2022/12/16 01:25:24;;;;;;;6.57;2.70;;;;;;;9.00;49.38;101147.38;5114268;27;20146;-69
2022/12/16 01:27:49;;;;;;;7.37;3.27;;;;;;;9.21;48.24;101145.66;5134095;27;20039;-69
2022/12/16 01:30:15;;;;;;;9.73;3.80;;;;;;;9.15;47.65;101140.47;5115773;27;20466;-69
2022/12/16 01:32:40;;;;;;;6.60;3.53;;;;;;;9.35;47.55;101153.50;5132682;27;20107;-69
2022/12/16 01:35:06;;;;;;;7.63;4.00;;;;;;;9.46;46.87;101150.91;5115495;27;20023;-69
2022/12/16 01:37:31;;;;;;;11.60;3.70;;;;;;;9.47;46.82;101157.88;5112734;27;20391;-69
2022/12/16 01:39:57;;;;;;;6.30;4.00;;;;;;;9.34;47.25;101159.59;5114705;27;20023;-68
2022/12/16 01:42:22;;;;;;;5.07;3.10;;;;;;;9.58;46.38;101165.69;5113239;27;20122;-68
2022/12/16 01:44:50;;;;;;;10.63;3.70;;;;;;;9.30;47.28;101178.72;5114728;27;20084;-69
2022/12/16 01:47:19;;;;;;;6.50;3.80;;;;;;;9.30;46.81;101174.38;5113771;27;20023;-69
2022/12/16 01:49:50;;;;;;;6.87;3.17;;;;;;;8.93;47.51;101182.16;5133869;27;20432;-69
2022/12/16 01:52:20;;;;;;;6.80;3.23;;;;;;;9.17;46.64;101185.66;5113668;27;20030;-69
2022/12/16 01:54:55;;;;;;;7.13;3.80;;;;;;;9.13;47.32;101194.34;5112520;27;20110;-69
2022/12/16 01:57:28;;;;;;;5.13;3.83;;;;;;;9.30;46.65;101195.25;5113331;27;20104;-69
2022/12/16 01:59:55;;;;;;;8.10;3.57;;;;;;;9.28;46.90;101198.72;5115265;27;20027;-68
2022/12/16 02:02:21;;;;;;;6.77;3.10;;;;;;;8.90;47.68;101197.78;5132927;27;20130;-69
2022/12/16 02:07:31;;;;;;;5.83;3.40;;;;;;;8.96;47.04;101205.63;5129213;27;20119;-68
2022/12/16 02:09:57;;;;;;;13.30;5.90;;;;;;;8.89;47.48;101206.47;5115073;27;20466;-69
2022/12/16 02:12:43;;;;;;;9.70;3.27;;;;;;;8.57;48.23;101204.63;5114204;27;20088;-69
2022/12/16 02:15:47;;;;;;;6.10;3.03;;;;;;;8.13;49.31;101210.41;5128292;27;20191;-68
2022/12/16 02:18:18;;;;;;;10.03;3.20;;;;;;;8.27;48.53;101206.19;5108773;28;20038;-68
2022/12/16 02:21:09;;;;;;;8.47;3.10;;;;;;;8.52;48.11;101203.72;5112270;27;20038;-69
2022/12/16 02:24:12;;;;;;;12.23;3.67;;;;;;;8.81;47.38;101218.59;5114220;27;20023;-69
2022/12/16 02:26:56;;;;;;;;;;;;;;;8.79;46.99;101215.13;5131598;27;20023;-69
2022/12/16 02:29:31;;;;;;;11.20;3.13;;;;;;;9.09;46.88;101223.91;5112923;27;19962;-69
2022/12/16 02:32:14;;;;;;;6.63;3.23;;;;;;;8.76;47.25;101215.97;5133101;27;20025;-69
2022/12/16 02:35:05;;;;;;;7.72;3.20;;;;;;;8.96;46.59;101208.22;5101886;28;20546;-69
2022/12/16 02:37:52;;;;;;;13.20;3.70;;;;;;;8.89;46.50;101211.69;5115887;27;20050;-69
2022/12/16 02:40:42;;;;;;;8.07;2.70;;;;;;;8.89;46.54;101211.69;5110767;27;20031;-68
2022/12/16 02:43:17;;;;;;;7.20;3.00;;;;;;;8.49;46.92;101214.16;5113635;27;20027;-69
2022/12/16 02:45:43;;;;;;;6.50;3.10;;;;;;;8.36;46.86;101210.56;5113235;27;20031;-68
2022/12/16 02:48:08;;;;;;;7.77;3.10;;;;;;;7.95;48.24;101225.09;5131967;27;20138;-69
2022/12/16 02:50:46;;;;;;;11.47;3.27;;;;;;;7.75;49.13;101231.88;5111780;27;20109;-68
2022/12/16 02:53:11;;;;;;;8.33;2.90;;;;;;;7.62;48.69;101223.97;5131642;27;20025;-68
2022/12/16 02:55:57;;;;;;;6.40;3.33;;;;;;;8.09;47.86;101225.19;5130503;27;20034;-68
2022/12/16 02:58:54;;;;;;;7.77;2.70;;;;;;;8.13;47.86;101228.66;5112688;27;20487;-69
2022/12/16 03:01:36;;;;;;;11.73;3.40;;;;;;;8.11;47.37;101235.59;5112753;27;20067;-69
2022/12/16 03:04:35;;;;;;;8.20;2.70;;;;;;;8.27;47.28;101242.66;5111622;27;20054;-68
2022/12/16 03:07:03;;;;;;;12.90;2.80;;;;;;;8.30;46.95;101240.06;5111582;27;20372;-68
2022/12/16 03:09:32;;;;;;;6.23;2.40;;;;;;;8.00;47.48;101252.88;5112839;27;20027;-68
2022/12/16 03:12:00;;;;;;;7.27;3.03;;;;;;;8.03;47.46;101252.91;5113191;27;20034;-68
2022/12/16 03:14:29;;;;;;;8.57;2.93;;;;;;;8.11;47.03;101246.00;5131488;27;20475;-68
2022/12/16 03:16:55;;;;;;;9.10;3.00;;;;;;;7.95;47.67;101258.03;5111666;27;20122;-68
2022/12/16 03:19:23;;;;;;;9.90;3.03;;;;;;;7.87;47.55;101263.19;5130052;27;20030;-68
2022/12/16 03:22:06;;;;;;;10.10;2.90;;;;;;;7.48;48.39;101267.19;5112047;27;20556;-68
2022/12/16 03:24:32;;;;;;;9.07;3.72;;;;;;;7.37;48.43;101268.81;5131488;27;20027;-68
2022/12/16 03:27:20;;;;;;;13.60;2.97;;;;;;;7.64;47.95;101276.88;5111634;27;20032;-68
2022/12/16 03:29:52;;;;;;;7.27;2.40;;;;;;;7.40;48.77;101276.63;5099183;27;20023;-68
2022/12/16 03:32:36;;;;;;;;;;;;;;;7.97;47.50;101280.63;5110008;27;20055;-68
2022/12/16 03:35:56;;;;;;;7.53;2.80;;;;;;;7.57;47.21;101285.50;5110242;28;19986;-68
2022/12/16 03:38:23;;;;;;;5.20;2.20;;;;;;;7.27;47.95;101292.09;5023869;28;20356;-68
2022/12/16 03:40:50;;;;;;;10.03;2.40;;;;;;;7.79;47.21;101290.91;5043821;28;20041;-68
2022/12/16 03:43:15;;;;;;;13.67;3.17;;;;;;;7.58;46.87;101296.75;5084931;27;20398;-68
2022/12/16 03:45:44;;;;;;;7.60;2.43;;;;;;;7.76;46.93;101304.75;5112682;28;20029;-68
2022/12/16 03:48:12;;;;;;;9.70;2.67;;;;;;;7.74;46.49;101303.00;5111210;28;20118;-68
2022/12/16 03:50:38;;;;;;;10.43;2.57;;;;;;;7.69;46.98;101304.66;5113074;28;20173;-68
2022/12/16 03:53:04;;;;;;;6.97;2.60;;;;;;;7.73;46.52;101304.69;5112583;28;20019;-68
2022/12/16 03:55:31;;;;;;;8.50;2.77;;;;;;;7.89;46.04;101308.31;5112215;28;20489;-69
2022/12/16 03:57:56;;;;;;;9.27;3.03;;;;;;;7.73;45.32;101302.09;5128818;27;20027;-68
2022/12/16 04:00:22;;;;;;;8.77;2.50;;;;;;;7.49;47.06;101297.53;5111399;28;20490;-68
2022/12/16 04:02:47;;;;;;;4.83;2.47;;;;;;;7.22;47.55;101301.56;5131606;28;20043;-69
2022/12/16 04:05:13;;;;;;;9.77;2.53;;;;;;;7.59;46.66;101304.56;5113279;28;20023;-68
2022/12/16 04:07:38;;;;;;;11.90;2.60;;;;;;;7.57;47.07;101311.50;5131035;28;20038;-68
2022/12/16 04:10:05;;;;;;;9.60;2.27;;;;;;;7.56;46.66;101320.16;5110651;28;20096;-68
2022/12/16 04:27:23;;;;;;;12.15;3.58;;;;;;;7.65;46.67;101319.38;5131920;28;20444;-68
2022/12/16 04:29:16;;;;;;;15.13;5.57;;;;;;;7.89;45.49;101328.28;5129634;27;20425;-68
2022/12/16 04:31:41;;;;;;;8.37;3.03;;;;;;;8.05;45.63;101316.25;5112582;27;20035;-68
2022/12/16 04:34:25;;;;;;;15.80;3.67;;;;;;;7.78;45.92;101333.38;5115841;27;20023;-68
